Time;durP1;ratioP1;P1;durP2;ratioP2;P2;SDS_P1;SDS_P2;PMS_P1;PMS_P2;Temp;Humidity;BMP_temperature;BMP_pressure;BME280_temperature;BME280_humidity;BME280_pressure;Samples;Min_cycle;Max_cycle;Signal;HPM_P1;HPM_P2
2022/08/09 00:00:06;;;;;;;;;;;;;;;29.42;47.93;101228.19;5094614;28;19920;-78
2022/08/09 00:02:37;;;;;;;;;;;;;;;29.42;48.31;101225.44;5094751;28;19927;-78
2022/08/09 00:05:21;;;;;;;;;;;;;;;29.41;47.84;101224.59;5093760;28;19986;-78
2022/08/09 00:08:09;;;;;;;;;;;;;;;29.42;48.16;101222.72;5094197;28;19920;-78
2022/08/09 00:10:57;;;;;;;;;;;;;;;29.40;47.89;101217.44;5094428;28;20282;-78
2022/08/09 00:13:24;;;;;;;;;;;;;;;29.42;47.97;101217.25;5092743;28;19927;-78
2022/08/09 00:15:53;;;;;;;;;;;;;;;29.41;48.22;101219.16;5094028;28;19920;-78
2022/08/09 00:18:31;;;;;;;;;;;;;;;29.42;47.97;101214.53;5094275;28;19920;-78
2022/08/09 00:21:05;;;;;;;;;;;;;;;29.41;47.96;101212.81;5094555;28;19927;-78
2022/08/09 00:23:35;;;;;;;;;;;;;;;29.41;47.93;101216.41;5094626;28;20287;-78
2022/08/09 00:26:23;;;;;;;;;;;;;;;29.41;47.97;101224.59;5092290;28;20295;-78
2022/08/09 00:29:02;;;;;;;;;;;;;;;29.41;47.92;101216.41;5096090;28;19920;-78
2022/08/09 00:31:38;;;;;;;;;;;;;;;29.41;48.17;101221.88;5097861;28;19927;-78
2022/08/09 00:34:25;;;;;;;;;;;;;;;29.41;48.00;101216.41;5097367;28;19943;-78
2022/08/09 00:36:52;;;;;;;;;;;;;;;29.40;48.00;101220.16;5097696;28;19931;-78
2022/08/09 00:39:19;;;;;;;;;;;;;;;29.41;47.92;101221.88;5096790;28;19920;-78
2022/08/09 00:42:07;;;;;;;;;;;;;;;29.42;48.00;101217.25;5097879;28;19920;-78
2022/08/09 00:44:54;;;;;;;;;;;;;;;29.41;48.20;101221.88;5097805;28;19920;-78
2022/08/09 00:47:23;;;;;;;;;;;;;;;29.41;47.97;101221.88;5096085;28;19924;-78
2022/08/09 00:49:51;;;;;;;;;;;;;;;29.41;48.05;101230.06;5097186;28;19920;-78
2022/08/09 00:52:23;;;;;;;;;;;;;;;29.40;48.20;101231.06;5098030;28;20375;-78
2022/08/09 00:54:58;;;;;;;;;;;;;;;29.41;48.06;101226.47;5096314;28;19927;-78
2022/08/09 00:57:30;;;;;;;;;;;;;;;29.40;47.97;101228.34;5097365;28;19920;-78
2022/08/09 01:00:06;;;;;;;;;;;;;;;29.41;48.25;101230.06;5097894;28;19920;-78
2022/08/09 01:02:50;;;;;;;;;;;;;;;29.40;48.23;101239.25;5096041;28;19949;-78
2022/08/09 01:05:36;;;;;;;;;;;;;;;29.40;48.19;101231.06;5096768;28;19920;-78
2022/08/09 01:08:44;;;;;;;;;;;;;;;29.40;48.19;101244.72;5097140;28;19919;-78
2022/08/09 01:11:29;;;;;;;;;;;;;;;29.41;48.29;101245.56;5097674;28;19927;-77
2022/08/09 01:14:16;;;;;;;;;;;;;;;29.41;48.04;101245.56;5097334;28;19920;-77
2022/08/09 01:16:47;;;;;;;;;;;;;;;29.41;48.12;101256.47;5097201;28;19920;-77
2022/08/09 01:19:24;;;;;;;;;;;;;;;29.40;48.34;101252.88;5096589;28;19920;-78
2022/08/09 01:22:26;;;;;;;;;;;;;;;29.40;48.11;101249.31;5096820;28;19920;-77
2022/08/09 01:25:09;;;;;;;;;;;;;;;29.39;48.14;101236.72;5096794;28;19924;-78
2022/08/09 01:27:40;;;;;;;;;;;;;;;29.39;48.13;101243.03;5096487;28;19943;-78
2022/08/09 01:30:08;;;;;;;;;;;;;;;29.39;48.46;101243.03;5096463;28;19920;-78
2022/08/09 01:32:56;;;;;;;;;;;;;;;29.39;48.02;101243.03;5096357;28;19943;-78
2022/08/09 01:35:24;;;;;;;;;;;;;;;29.40;48.15;101239.25;5096613;28;19920;-78
2022/08/09 01:38:10;;;;;;;;;;;;;;;29.41;48.03;101226.47;5095322;28;19927;-78
2022/08/09 01:40:48;;;;;;;;;;;;;;;29.39;48.24;101221.19;5096797;28;19927;-78
2022/08/09 01:43:19;;;;;;;;;;;;;;;29.40;48.15;101222.88;5096778;28;19920;-78
2022/08/09 01:45:53;;;;;;;;;;;;;;;29.41;48.09;101229.19;5096465;28;19920;-78
2022/08/09 01:48:24;;;;;;;;;;;;;;;29.39;48.07;101231.28;5096682;28;19924;-77
2022/08/09 01:50:58;;;;;;;;;;;;;;;29.38;48.08;101233.16;5096907;28;20264;-78
2022/08/09 01:53:25;;;;;;;;;;;;;;;29.39;48.16;101223.09;5095954;28;19927;-78
2022/08/09 01:55:56;;;;;;;;;;;;;;;29.39;48.29;101220.38;5096106;28;19919;-78
2022/08/09 01:58:24;;;;;;;;;;;;;;;29.39;48.26;101223.09;5095844;28;19920;-78
2022/08/09 02:00:55;;;;;;;;;;;;;;;29.38;48.29;101219.53;5096137;28;19924;-78
2022/08/09 02:03:22;;;;;;;;;;;;;;;29.38;48.28;101224.97;5096389;28;19957;-78
2022/08/09 02:05:51;;;;;;;;;;;;;;;29.38;48.34;101224.97;5095597;28;19920;-78
2022/08/09 02:08:35;;;;;;;;;;;;;;;29.39;48.09;101217.63;5096743;28;19927;-78
2022/08/09 02:11:23;;;;;;;;;;;;;;;29.38;48.33;101214.06;5095943;28;19920;-78
2022/08/09 02:14:08;;;;;;;;;;;;;;;29.38;48.35;101224.97;5096194;28;19927;-78
2022/08/09 02:16:41;;;;;;;;;;;;;;;29.38;48.11;101215.94;5096148;28;19920;-78
2022/08/09 02:19:28;;;;;;;;;;;;;;;29.38;48.44;101216.78;5096051;28;20387;-78
2022/08/09 02:22:12;;;;;;;;;;;;;;;29.38;48.16;101218.69;5094288;28;19927;-78
2022/08/09 02:24:41;;;;;;;;;;;;;;;29.37;48.52;101220.53;5095978;28;19927;-78
2022/08/09 02:27:14;;;;;;;;;;;;;;;29.37;48.44;101223.25;5094440;28;19924;-78
2022/08/09 02:29:48;;;;;;;;;;;;;;;29.37;48.17;101220.53;5095265;28;20379;-78
2022/08/09 02:32:18;;;;;;;;;;;;;;;29.37;48.61;101216.97;5095823;28;19920;-78
2022/08/09 02:34:51;;;;;;;;;;;;;;;29.37;48.16;101223.25;5093906;28;19927;-78
2022/08/09 02:37:25;;;;;;;;;;;;;;;29.37;48.28;101226.00;5095749;28;19947;-78
2022/08/09 02:40:05;;;;;;;;;;;;;;;29.37;48.30;101223.25;5095627;28;19920;-78
2022/08/09 02:42:38;;;;;;;;;;;;;;;29.37;48.16;101217.81;5095336;28;19927;-78
2022/08/09 02:45:08;;;;;;;;;;;;;;;29.36;48.20;101210.66;5094843;28;19920;-78
2022/08/09 02:47:37;;;;;;;;;;;;;;;29.38;48.21;101214.06;5094861;28;19920;-78
2022/08/09 02:50:30;;;;;;;;;;;;;;;29.36;48.42;101210.66;5095702;28;19924;-78
2022/08/09 02:53:00;;;;;;;;;;;;;;;29.36;48.22;101204.38;5094477;28;19920;-78
2022/08/09 02:55:30;;;;;;;;;;;;;;;29.36;48.15;101207.94;5095397;28;20395;-78
2022/08/09 02:58:20;;;;;;;;;;;;;;;29.37;48.34;101212.34;5094650;28;20367;-78
2022/08/09 03:01:05;;;;;;;;;;;;;;;29.37;48.58;101206.91;5095277;28;20378;-78
2022/08/09 03:03:35;;;;;;;;;;;;;;;29.36;48.20;101216.13;5095395;28;19931;-78
2022/08/09 03:06:23;;;;;;;;;;;;;;;29.35;48.07;101217.16;5093809;28;19919;-78
2022/08/09 03:08:54;;;;;;;;;;;;;;;29.36;48.33;101223.47;5094893;28;19927;-78
2022/08/09 03:11:22;;;;;;;;;;;;;;;29.36;48.10;101232.47;5094896;28;19920;-78
2022/08/09 03:14:10;;;;;;;;;;;;;;;29.37;48.04;101238.78;5094520;28;19920;-78
2022/08/09 03:16:38;;;;;;;;;;;;;;;29.36;48.09;101224.31;5094981;28;19920;-78
2022/08/09 03:19:15;;;;;;;;;;;;;;;29.36;48.31;101221.56;5095227;28;19927;-78
2022/08/09 03:22:03;;;;;;;;;;;;;;;29.35;48.15;101211.72;5094530;28;19927;-78
2022/08/09 03:24:30;;;;;;;;;;;;;;;29.35;48.40;101217.16;5094323;28;19920;-78
2022/08/09 03:27:17;;;;;;;;;;;;;;;29.36;48.48;101216.13;5094297;28;19927;-78
2022/08/09 03:29:48;;;;;;;;;;;;;;;29.35;48.05;101210.88;5095135;28;19920;-78
2022/08/09 03:32:32;;;;;;;;;;;;;;;29.36;48.50;101204.38;5094819;28;19920;-78
2022/08/09 03:35:03;;;;;;;;;;;;;;;29.35;48.05;101200.81;5094803;28;19920;-78
2022/08/09 03:37:41;;;;;;;;;;;;;;;29.35;48.36;101205.41;5094768;28;19920;-78
2022/08/09 03:40:24;;;;;;;;;;;;;;;29.35;48.07;101208.97;5095036;28;19924;-78
2022/08/09 03:42:57;;;;;;;;;;;;;;;29.36;48.23;101215.28;5093105;28;19927;-78
2022/08/09 03:45:24;;;;;;;;;;;;;;;29.36;48.25;101215.28;5094926;28;19931;-78
2022/08/09 03:48:12;;;;;;;;;;;;;;;29.34;48.01;101212.75;5094661;28;19931;-78
2022/08/09 03:50:58;;;;;;;;;;;;;;;29.34;48.17;101218.22;5094612;28;19927;-78
2022/08/09 03:53:26;;;;;;;;;;;;;;;29.34;48.20;101234.56;5093966;28;19920;-78
2022/08/09 03:56:04;;;;;;;;;;;;;;;29.35;48.21;101235.41;5094449;28;19920;-77
2022/08/09 03:58:31;;;;;;;;;;;;;;;29.35;48.21;101238.97;5093744;28;19944;-77
2022/08/09 04:00:59;;;;;;;;;;;;;;;29.34;48.20;101245.47;5093910;28;19927;-77
2022/08/09 04:03:27;;;;;;;;;;;;;;;29.35;48.10;101251.78;5095418;28;19927;-78
2022/08/09 04:06:12;;;;;;;;;;;;;;;29.35;48.31;101258.06;5098245;28;19938;-78
2022/08/09 04:08:40;;;;;;;;;;;;;;;29.34;48.17;101256.38;5098271;28;19927;-77
2022/08/09 04:11:12;;;;;;;;;;;;;;;29.34;48.29;101261.84;5098120;28;19931;-78
2022/08/09 04:13:40;;;;;;;;;;;;;;;29.34;48.04;101267.31;5098698;28;19927;-78
2022/08/09 04:16:27;;;;;;;;;;;;;;;29.33;48.41;101265.59;5098441;28;19920;-78
2022/08/09 04:18:54;;;;;;;;;;;;;;;29.34;48.31;101266.47;5098648;28;19924;-78
2022/08/09 04:21:23;;;;;;;;;;;;;;;29.34;48.05;101275.47;5096603;28;20291;-78
2022/08/09 04:23:51;;;;;;;;;;;;;;;29.33;48.04;101290.13;5097782;28;19920;-78
2022/08/09 04:26:23;;;;;;;;;;;;;;;29.34;48.19;101297.28;5097628;28;19920;-78
2022/08/09 04:29:01;;;;;;;;;;;;;;;29.33;48.17;101298.31;5098209;28;19927;-78
2022/08/09 04:31:40;;;;;;;;;;;;;;;29.33;48.07;101301.03;5098170;28;19927;-78
2022/08/09 04:34:13;;;;;;;;;;;;;;;29.34;48.21;101307.38;5098361;28;19935;-78
2022/08/09 04:36:57;;;;;;;;;;;;;;;29.32;48.20;101316.56;5098087;28;19927;-78
2022/08/09 04:39:25;;;;;;;;;;;;;;;29.34;48.31;101310.09;5097655;28;20394;-78
2022/08/09 04:41:57;;;;;;;;;;;;;;;29.34;48.04;101316.38;5097758;28;19920;-78
2022/08/09 04:44:28;;;;;;;;;;;;;;;29.34;48.39;101307.38;5097904;28;19927;-78
2022/08/09 04:46:56;;;;;;;;;;;;;;;29.34;48.11;101321.00;5098014;28;19927;-78
2022/08/09 04:49:36;;;;;;;;;;;;;;;29.34;48.05;101329.19;5098107;28;19920;-78
2022/08/09 04:52:22;;;;;;;;;;;;;;;29.32;48.22;101337.53;5097775;28;20350;-78
2022/08/09 04:54:53;;;;;;;;;;;;;;;29.32;48.00;101343.81;5097259;28;19919;-78
2022/08/09 04:57:20;;;;;;;;;;;;;;;29.32;48.25;101340.25;5096465;28;19924;-78
2022/08/09 04:59:51;;;;;;;;;;;;;;;29.32;48.14;101343.81;5096193;28;19927;-78
2022/08/09 05:02:18;;;;;;;;;;;;;;;29.32;48.11;101346.56;5095820;28;19927;-78
2022/08/09 05:04:46;;;;;;;;;;;;;;;29.32;48.23;101340.25;5095836;28;20291;-78
2022/08/09 05:07:13;;;;;;;;;;;;;;;29.32;48.46;101338.38;5095823;28;19927;-78
2022/08/09 05:09:46;;;;;;;;;;;;;;;29.32;48.23;101334.81;5095656;28;19924;-78
2022/08/09 05:12:16;;;;;;;;;;;;;;;29.32;48.15;101334.81;5096735;28;19938;-78
2022/08/09 05:14:43;;;;;;;;;;;;;;;29.31;48.17;101333.97;5094222;28;20291;-78
2022/08/09 05:17:10;;;;;;;;;;;;;;;29.31;48.29;101341.31;5095535;28;19927;-78
2022/08/09 05:19:57;;;;;;;;;;;;;;;29.31;48.27;101341.31;5096128;28;19927;-78
2022/08/09 05:22:25;;;;;;;;;;;;;;;29.32;48.24;101337.53;5095417;28;19942;-78
2022/08/09 05:25:13;;;;;;;;;;;;;;;29.31;48.16;101333.13;5096076;28;19924;-78
2022/08/09 05:27:41;;;;;;;;;;;;;;;29.31;48.18;101335.84;5095303;28;19920;-78
2022/08/09 05:30:14;;;;;;;;;;;;;;;29.30;48.14;101334.16;5096351;28;19920;-78
2022/08/09 05:32:44;;;;;;;;;;;;;;;29.31;48.08;101341.31;5096174;28;20259;-78
2022/08/09 05:35:17;;;;;;;;;;;;;;;29.31;48.28;101338.56;5096066;28;20295;-78
2022/08/09 05:37:49;;;;;;;;;;;;;;;29.31;48.25;101344.88;5095676;28;20394;-78
2022/08/09 05:40:17;;;;;;;;;;;;;;;29.30;48.28;101351.38;5095258;28;19924;-78
2022/08/09 05:42:45;;;;;;;;;;;;;;;29.30;48.25;101345.06;5095239;28;19927;-78
2022/08/09 05:45:12;;;;;;;;;;;;;;;29.29;48.49;101344.22;5095662;28;19943;-78
2022/08/09 05:47:41;;;;;;;;;;;;;;;29.30;48.34;101347.78;5095802;28;19927;-78
2022/08/09 05:50:18;;;;;;;;;;;;;;;29.30;48.58;101343.19;5095279;28;19919;-78
2022/08/09 05:53:01;;;;;;;;;;;;;;;29.30;48.33;101353.25;5094934;28;19920;-78
2022/08/09 05:55:29;;;;;;;;;;;;;;;29.30;48.50;101354.09;5094898;28;19927;-78
2022/08/09 05:57:57;;;;;;;;;;;;;;;29.30;48.24;101353.25;5053184;28;1204701;-78
2022/08/09 06:00:25;;;;;;;;;;;;;;;29.30;48.29;101356.81;5095946;28;19946;-78
2022/08/09 06:02:58;;;;;;;;;;;;;;;29.31;48.63;101349.47;5095499;28;19920;-78
2022/08/09 06:05:26;;;;;;;;;;;;;;;29.30;48.42;101348.63;5096426;28;19927;-78
2022/08/09 06:08:14;;;;;;;;;;;;;;;29.29;48.34;101348.81;5095664;28;19924;-78
2022/08/09 06:10:50;;;;;;;;;;;;;;;29.29;48.33;101351.53;5096520;28;19927;-78
2022/08/09 06:13:17;;;;;;;;;;;;;;;29.28;48.43;101349.84;5095104;28;19943;-78
2022/08/09 06:15:48;;;;;;;;;;;;;;;29.28;48.56;101350.69;5093536;28;19924;-78
2022/08/09 06:18:18;;;;;;;;;;;;;;;29.29;48.46;101348.81;5096103;28;19920;-78
2022/08/09 06:20:50;;;;;;;;;;;;;;;29.29;48.38;101357.84;5094302;28;19920;-78
2022/08/09 06:23:24;;;;;;;;;;;;;;;29.29;48.50;101365.16;5096298;28;19920;-78
2022/08/09 06:26:11;;;;;;;;;;;;;;;29.29;48.79;101371.50;5095165;28;19927;-78
2022/08/09 06:28:39;;;;;;;;;;;;;;;29.28;48.32;101367.06;5095828;28;19927;-78
2022/08/09 06:31:10;;;;;;;;;;;;;;;29.29;48.65;101365.16;5096272;28;19927;-78
2022/08/09 06:33:37;;;;;;;;;;;;;;;29.28;48.64;101364.31;5095758;28;20363;-78
2022/08/09 06:36:08;;;;;;;;;;;;;;;29.29;48.71;101371.50;5095181;28;20279;-78
2022/08/09 06:38:39;;;;;;;;;;;;;;;29.28;48.47;101366.22;5095396;28;19920;-78
2022/08/09 06:41:16;;;;;;;;;;;;;;;29.28;48.42;101371.66;5095400;28;19926;-78
2022/08/09 06:43:45;;;;;;;;;;;;;;;29.29;48.44;101378.81;5095309;28;19927;-78
2022/08/09 06:46:13;;;;;;;;;;;;;;;29.29;48.74;101376.06;5094981;28;19920;-77
2022/08/09 06:49:00;;;;;;;;;;;;;;;29.28;48.56;101379.84;5095566;28;20017;-77
2022/08/09 06:51:28;;;;;;;;;;;;;;;29.28;48.77;101375.22;5094778;28;20367;-78
2022/08/09 06:53:56;;;;;;;;;;;;;;;29.29;48.42;101384.25;5095518;28;19920;-77
2022/08/09 06:56:27;;;;;;;;;;;;;;;29.28;48.60;101386.13;5094548;28;19927;-77
2022/08/09 06:58:57;;;;;;;;;;;;;;;29.28;48.46;101383.41;5094719;28;19924;-77
2022/08/09 07:01:45;;;;;;;;;;;;;;;29.28;48.45;101386.13;5095298;28;19920;-78
2022/08/09 07:04:24;;;;;;;;;;;;;;;29.29;48.59;101397.88;5095043;28;19920;-78
2022/08/09 07:06:53;;;;;;;;;;;;;;;29.29;48.65;101400.63;5093433;28;19920;-78
2022/08/09 07:09:27;;;;;;;;;;;;;;;29.28;48.54;101393.47;5094907;28;19919;-78
2022/08/09 07:12:14;;;;;;;;;;;;;;;29.28;48.43;101407.13;5095143;28;19974;-77
2022/08/09 07:14:45;;;;;;;;;;;;;;;29.27;48.50;101403.53;5095369;28;19942;-78
2022/08/09 07:17:20;;;;;;;;;;;;;;;29.27;48.75;101405.44;5094783;28;20402;-78
2022/08/09 07:19:49;;;;;;;;;;;;;;;29.27;48.77;101400.81;5094599;28;20367;-78
2022/08/09 07:22:17;;;;;;;;;;;;;;;29.28;48.45;101404.38;5095184;28;19927;-78
2022/08/09 07:24:44;;;;;;;;;;;;;;;29.27;48.45;101398.09;5093323;28;19927;-78
2022/08/09 07:27:19;;;;;;;;;;;;;;;29.27;48.71;101411.72;5094552;28;19986;-78
2022/08/09 07:30:00;;;;;;;;;;;;;;;29.27;48.53;101405.44;5093005;28;19927;-78
2022/08/09 07:32:28;;;;;;;;;;;;;;;29.27;48.45;101417.19;5094214;28;19931;-78
2022/08/09 07:35:00;;;;;;;;;;;;;;;29.28;48.61;101410.69;5094193;28;19920;-78
2022/08/09 07:37:34;;;;;;;;;;;;;;;29.28;48.45;101418.03;5093594;28;19920;-78
2022/08/09 07:40:14;;;;;;;;;;;;;;;29.27;48.75;101414.44;5094422;28;19920;-78
2022/08/09 07:42:54;;;;;;;;;;;;;;;29.28;48.90;101418.03;5094148;28;19928;-78
2022/08/09 07:45:25;;;;;;;;;;;;;;;29.27;48.52;101413.59;5094600;28;19920;-78
2022/08/09 07:48:06;;;;;;;;;;;;;;;29.28;48.47;101412.56;5094030;28;19927;-78
2022/08/09 07:50:51;;;;;;;;;;;;;;;29.28;48.54;101412.56;5094013;28;19927;-78
2022/08/09 07:53:38;;;;;;;;;;;;;;;29.28;48.56;101420.75;5094322;28;20367;-78
2022/08/09 07:56:26;;;;;;;;;;;;;;;29.28;48.44;101424.31;5094909;28;19920;-78
2022/08/09 07:58:56;;;;;;;;;;;;;;;29.27;48.78;101417.19;5093771;28;19920;-78
2022/08/09 08:01:25;;;;;;;;;;;;;;;29.28;48.79;101420.75;5093307;28;19927;-78
2022/08/09 08:04:03;;;;;;;;;;;;;;;29.28;48.90;101427.03;5093801;28;19920;-78
2022/08/09 08:06:36;;;;;;;;;;;;;;;29.26;48.46;101418.22;5094369;28;19942;-78
2022/08/09 08:09:21;;;;;;;;;;;;;;;29.28;48.70;101413.41;5094326;28;19927;-80
2022/08/09 08:12:08;;;;;;;;;;;;;;;29.27;48.61;101413.59;5094713;28;20303;-77
2022/08/09 08:14:55;;;;;;;;;;;;;;;29.28;48.67;101416.13;5093139;28;19920;-77
2022/08/09 08:17:23;;;;;;;;;;;;;;;29.27;48.51;101409.00;5093871;28;20390;-77
2022/08/09 08:20:10;;;;;;;;;;;;;;;29.27;48.47;101406.28;5093268;28;19927;-77
2022/08/09 08:22:39;;;;;;;;;;;;;;;29.27;48.48;101409.00;5092562;28;19919;-78
2022/08/09 08:25:06;;;;;;;;;;;;;;;29.27;48.89;101406.28;5093789;28;19920;-78
2022/08/09 08:27:39;;;;;;;;;;;;;;;29.27;48.66;101411.72;5094333;28;19920;-78
2022/08/09 08:30:10;;;;;;;;;;;;;;;29.28;48.84;101409.84;5094455;28;19924;-78
2022/08/09 08:32:37;;;;;;;;;;;;;;;29.27;48.40;101408.16;5093654;28;19927;-78
2022/08/09 08:35:20;;;;;;;;;;;;;;;29.27;48.55;101400.81;5093910;28;20249;-78
2022/08/09 08:37:49;;;;;;;;;;;;;;;29.28;48.63;101409.84;5092436;28;19947;-77
2022/08/09 08:40:35;;;;;;;;;;;;;;;29.27;48.64;101406.28;5094432;28;19920;-78
2022/08/09 08:43:03;;;;;;;;;;;;;;;29.27;48.46;101402.69;5093520;28;19920;-78
2022/08/09 08:45:49;;;;;;;;;;;;;;;29.27;48.45;101403.53;5094128;28;19927;-77
2022/08/09 08:48:31;;;;;;;;;;;;;;;29.26;48.66;101401.84;5092103;28;19927;-78
2022/08/09 08:50:59;;;;;;;;;;;;;;;29.27;48.40;101399.97;5096737;28;20319;-78
2022/08/09 08:53:26;;;;;;;;;;;;;;;29.28;48.74;101409.84;5097186;28;19920;-78
2022/08/09 08:56:03;;;;;;;;;;;;;;;29.28;48.74;101404.38;5097617;28;20275;-78
2022/08/09 08:58:32;;;;;;;;;;;;;;;29.28;48.38;101404.38;5097060;28;20306;-78
2022/08/09 09:01:02;;;;;;;;;;;;;;;29.28;48.35;101405.22;5096054;28;19927;-78
2022/08/09 09:03:47;;;;;;;;;;;;;;;29.27;48.70;101406.28;5097745;28;19927;-78
2022/08/09 09:06:17;;;;;;;;;;;;;;;29.28;48.45;101409.84;5095770;28;19920;-78
2022/08/09 09:08:45;;;;;;;;;;;;;;;29.27;48.30;101397.25;5097315;28;19920;-78
2022/08/09 09:11:19;;;;;;;;;;;;;;;29.27;48.53;101395.34;5097411;28;19943;-78
2022/08/09 09:13:47;;;;;;;;;;;;;;;29.28;48.36;101396.22;5097354;28;20382;-78
2022/08/09 09:16:27;;;;;;;;;;;;;;;29.28;48.58;101399.78;5096730;28;20299;-78
2022/08/09 09:18:58;;;;;;;;;;;;;;;29.28;48.44;101402.50;5096424;28;19920;-78
2022/08/09 09:21:57;;;;;;;;;;;;;;;29.27;48.71;101402.69;5096952;28;19927;-78
2022/08/09 09:24:28;;;;;;;;;;;;;;;29.28;48.65;101407.97;5097204;28;20279;-78
2022/08/09 09:26:57;;;;;;;;;;;;;;;29.28;48.44;101396.22;5096725;28;19920;-78
2022/08/09 09:29:37;;;;;;;;;;;;;;;29.27;48.65;101399.97;5095618;28;19920;-78
2022/08/09 09:32:26;;;;;;;;;;;;;;;29.27;48.43;101394.53;5097214;28;20260;-78
2022/08/09 09:35:05;;;;;;;;;;;;;;;29.27;48.60;101394.53;5096990;28;20359;-77
2022/08/09 09:37:38;;;;;;;;;;;;;;;29.26;48.35;101393.69;5096748;28;20283;-78
2022/08/09 09:40:07;;;;;;;;;;;;;;;29.28;48.39;101393.47;5096481;28;20288;-78
2022/08/09 09:42:35;;;;;;;;;;;;;;;29.27;48.42;101394.53;5096225;28;19935;-78
2022/08/09 09:45:05;;;;;;;;;;;;;;;29.27;48.17;101392.63;5096170;28;19920;-78
2022/08/09 09:47:34;;;;;;;;;;;;;;;29.28;48.37;101385.28;5096503;28;20283;-78
2022/08/09 09:50:20;;;;;;;;;;;;;;;29.28;48.20;101382.56;5096178;28;19919;-78
2022/08/09 09:52:53;;;;;;;;;;;;;;;29.29;48.54;101384.25;5096877;28;19927;-78
2022/08/09 09:55:23;;;;;;;;;;;;;;;29.28;48.17;101382.56;5096868;28;19920;-78
2022/08/09 09:58:01;;;;;;;;;;;;;;;29.28;48.30;101382.56;5094801;28;20368;-78
2022/08/09 10:00:47;;;;;;;;;;;;;;;29.28;48.40;101388.03;5095715;28;19920;-78
2022/08/09 10:03:43;;;;;;;;;;;;;;;29.27;48.21;101380.88;5096463;28;19920;-78
2022/08/09 10:06:29;;;;;;;;;;;;;;;29.27;48.27;101381.72;5095768;28;19927;-78
2022/08/09 10:09:00;;;;;;;;;;;;;;;29.27;48.16;101383.59;5096188;28;19949;-78
2022/08/09 10:11:37;;;;;;;;;;;;;;;29.27;48.20;101383.59;5096514;28;19927;-78
2022/08/09 10:14:26;;;;;;;;;;;;;;;29.28;48.48;101380.69;5095612;28;19919;-78
2022/08/09 10:17:11;;;;;;;;;;;;;;;29.29;48.54;101378.81;5096379;28;19920;-78
2022/08/09 10:19:59;;;;;;;;;;;;;;;29.28;48.39;101375.22;5096103;28;19935;-78
2022/08/09 10:22:46;;;;;;;;;;;;;;;29.27;48.20;101381.72;5095927;28;19920;-78
2022/08/09 10:25:14;;;;;;;;;;;;;;;29.28;48.22;101374.38;5096231;28;20359;-78
2022/08/09 10:27:47;;;;;;;;;;;;;;;29.27;48.21;101376.28;5095820;28;19927;-78
2022/08/09 10:30:25;;;;;;;;;;;;;;;29.27;48.01;101369.97;5095984;28;19920;-78
2022/08/09 10:33:13;;;;;;;;;;;;;;;29.28;48.17;101368.94;5096002;28;20291;-78
2022/08/09 10:36:00;;;;;;;;;;;;;;;29.29;48.19;101370.63;5094939;28;19951;-78
2022/08/09 10:38:28;;;;;;;;;;;;;;;29.28;48.35;101363.47;5095424;28;19927;-78
2022/08/09 10:41:16;;;;;;;;;;;;;;;29.29;48.06;101367.91;5095021;28;19927;-78
2022/08/09 10:43:45;;;;;;;;;;;;;;;29.28;48.17;101358.03;5095231;28;19920;-78
2022/08/09 10:46:38;;;;;;;;;;;;;;;29.28;48.19;101358.88;5093818;28;19927;-78
2022/08/09 10:49:24;;;;;;;;;;;;;;;29.28;47.94;101350.69;5095646;28;19924;-78
2022/08/09 10:52:17;;;;;;;;;;;;;;;29.28;48.34;101349.84;5095549;28;19931;-78
2022/08/09 10:54:47;;;;;;;;;;;;;;;29.28;48.02;101347.97;5095499;28;19920;-78
2022/08/09 10:57:20;;;;;;;;;;;;;;;29.28;48.16;101339.78;5094699;28;19927;-78
2022/08/09 10:59:49;;;;;;;;;;;;;;;29.28;48.35;101345.22;5095268;28;19927;-78
2022/08/09 11:02:39;;;;;;;;;;;;;;;29.29;47.94;101338.78;5095024;28;19920;-78
2022/08/09 11:05:27;;;;;;;;;;;;;;;29.28;47.90;101338.94;5094900;28;19920;-78
2022/08/09 11:08:16;;;;;;;;;;;;;;;29.28;48.19;101328.03;5093623;28;19927;-78
2022/08/09 11:10:55;;;;;;;;;;;;;;;29.28;48.19;101328.88;5094210;28;19924;-78
2022/08/09 11:13:35;;;;;;;;;;;;;;;29.28;47.95;101330.75;5094772;28;19920;-78
2022/08/09 11:16:29;;;;;;;;;;;;;;;29.28;47.83;101328.03;5095395;28;19920;-78
2022/08/09 11:19:03;;;;;;;;;;;;;;;29.27;47.84;101332.63;5094806;28;20367;-78
2022/08/09 11:21:53;;;;;;;;;;;;;;;29.28;47.98;101319.84;5095036;28;19927;-78
2022/08/09 11:24:50;;;;;;;;;;;;;;;29.28;47.98;101322.56;5094971;28;20267;-78
2022/08/09 11:27:35;;;;;;;;;;;;;;;29.27;48.02;101321.72;5093506;28;19920;-77
2022/08/09 11:30:22;;;;;;;;;;;;;;;29.28;47.96;101322.56;5094803;28;20367;-77
2022/08/09 11:33:09;;;;;;;;;;;;;;;29.28;47.86;101325.31;5095311;28;19927;-78
2022/08/09 11:35:37;;;;;;;;;;;;;;;29.28;48.12;101328.88;5094210;28;19927;-78
2022/08/09 11:38:22;;;;;;;;;;;;;;;29.28;48.00;101311.66;5093738;28;20382;-77
2022/08/09 11:41:12;;;;;;;;;;;;;;;29.27;47.91;101310.81;5093238;28;19927;-77
2022/08/09 11:43:47;;;;;;;;;;;;;;;29.28;48.02;101312.50;5093546;28;19927;-77
2022/08/09 11:46:15;;;;;;;;;;;;;;;29.27;47.85;101305.38;5094065;28;19920;-77
2022/08/09 11:48:59;;;;;;;;;;;;;;;29.27;47.77;101302.63;5094797;28;19919;-78
2022/08/09 11:51:51;;;;;;;;;;;;;;;29.28;47.73;101298.03;5093534;28;20367;-78
2022/08/09 11:54:38;;;;;;;;;;;;;;;29.28;47.86;101292.56;5112474;28;19927;-78
2022/08/09 11:57:25;;;;;;;;;;;;;;;29.27;47.60;101289.00;5093810;28;19946;-79
2022/08/09 12:00:12;;;;;;;;;;;;;;;29.28;48.04;101289.84;5092960;28;19931;-77
2022/08/09 12:02:43;;;;;;;;;;;;;;;29.28;47.87;101292.56;5094806;28;19931;-77
2022/08/09 12:05:19;;;;;;;;;;;;;;;29.28;47.89;101292.56;5094175;28;20387;-77
2022/08/09 12:07:50;;;;;;;;;;;;;;;29.28;48.11;101284.41;5092479;28;19920;-77
2022/08/09 12:10:23;;;;;;;;;;;;;;;29.27;47.64;101280.81;5093866;28;19927;-77
2022/08/09 12:13:05;;;;;;;;;;;;;;;29.26;47.97;101270.97;5094455;28;19920;-78
2022/08/09 12:16:13;;;;;;;;;;;;;;;29.27;47.73;101272.66;5094435;28;19924;-77
2022/08/09 12:18:57;;;;;;;;;;;;;;;29.27;47.82;101275.38;5094652;28;19927;-77
2022/08/09 12:21:30;;;;;;;;;;;;;;;29.27;47.72;101272.66;5094628;28;19920;-77
2022/08/09 12:24:05;;;;;;;;;;;;;;;29.27;47.57;101271.81;5094344;28;19920;-77
2022/08/09 12:26:40;;;;;;;;;;;;;;;29.28;47.83;101268.88;5097519;28;19927;-79
2022/08/09 12:29:14;;;;;;;;;;;;;;;29.28;47.80;101268.03;5098316;28;19927;-77
2022/08/09 12:32:04;;;;;;;;;;;;;;;29.27;47.59;101271.81;5098242;28;20367;-77
2022/08/09 12:34:36;;;;;;;;;;;;;;;29.27;47.29;101259.00;5098401;28;20275;-78
2022/08/09 12:37:04;;;;;;;;;;;;;;;29.27;47.31;101255.44;5098062;28;19920;-78
2022/08/09 12:40:07;;;;;;;;;;;;;;;29.26;47.73;101254.59;5097475;28;19927;-78
2022/08/09 12:42:35;;;;;;;;;;;;;;;29.28;47.32;101257.13;5097718;28;19927;-78
2022/08/09 12:45:04;;;;;;;;;;;;;;;29.27;47.11;101249.97;5097891;28;19923;-78
2022/08/09 12:47:51;;;;;;;;;;;;;;;29.27;47.42;101242.66;5097612;28;19920;-78
2022/08/09 12:50:18;;;;;;;;;;;;;;;29.27;47.11;101248.09;5097279;28;19920;-78
2022/08/09 12:52:51;;;;;;;;;;;;;;;29.27;47.57;101245.38;5097416;28;20315;-78
2022/08/09 12:55:38;;;;;;;;;;;;;;;29.26;47.67;101243.69;5098016;28;19920;-78
2022/08/09 12:58:25;;;;;;;;;;;;;;;29.26;47.55;101227.31;5097033;28;19927;-78
2022/08/09 13:00:54;;;;;;;;;;;;;;;29.27;47.51;101239.06;5097566;28;19920;-78
2022/08/09 13:03:26;;;;;;;;;;;;;;;29.27;47.59;101236.34;5097530;28;19928;-78
2022/08/09 13:06:22;;;;;;;;;;;;;;;29.28;47.28;101236.16;5097257;28;19924;-78
2022/08/09 13:08:58;;;;;;;;;;;;;;;29.28;47.60;101238.03;5096919;28;19920;-78
2022/08/09 13:11:27;;;;;;;;;;;;;;;29.28;47.12;101235.31;5097323;28;20257;-78
2022/08/09 13:13:55;;;;;;;;;;;;;;;29.28;47.19;101240.75;5097018;28;19920;-78
2022/08/09 13:16:42;;;;;;;;;;;;;;;29.27;47.13;101226.28;5097701;28;19924;-78
2022/08/09 13:19:25;;;;;;;;;;;;;;;29.27;47.03;101226.28;5095768;28;19920;-78
2022/08/09 13:22:17;;;;;;;;;;;;;;;29.27;47.06;101217.25;5095404;28;19924;-78